sensor_id;sensor_type;location;lat;lon;timestamp;pressure;altitude;pressure_sealevel;temperature;humidity
26178;BME280;13924;47.670;10.310;2024-03-25T00:00:37;93450;;;1.2;100.0
26178;BME280;13924;47.670;10.310;2024-03-25T00:15:39;93470;;;1.7;100.0
26178;BME280;13924;47.670;10.310;2024-03-25T00:30:41;93470;;;1.7;100.0
26178;BME280;13924;47.670;10.310;2024-03-25T00:45:41;93480;;;1.8;100.0
26178;BME280;13924;47.670;10.310;2024-03-25T01:00:43;93480;;;1.8;100.0
26178;BME280;13924;47.670;10.310;2024-03-25T01:15:43;93480;;;1.7;100.0
26178;BME280;13924;47.670;10.310;2024-03-25T01:30:43;93470;;;1.6;100.0
26178;BME280;13924;47.670;10.310;2024-03-25T01:45:44;93430;;;1.8;100.0
26178;BME280;13924;47.670;10.310;2024-03-25T02:00:47;93400;;;1.6;100.0
26178;BME280;13924;47.670;10.310;2024-03-25T02:01:28;93400;;;1.6;100.0
26178;BME280;13924;47.670;10.310;2024-03-25T02:15:45;93380;;;1.6;100.0
26178;BME280;13924;47.670;10.310;2024-03-25T02:30:46;93390;;;1.7;100.0
26178;BME280;13924;47.670;10.310;2024-03-25T02:45:46;93390;;;1.7;100.0
26178;BME280;13924;47.670;10.310;2024-03-25T03:00:47;93390;;;1.7;100.0
26178;BME280;13924;47.670;10.310;2024-03-25T03:15:48;93400;;;1.8;100.0
26178;BME280;13924;47.670;10.310;2024-03-25T03:30:50;93410;;;1.8;100.0
26178;BME280;13924;47.670;10.310;2024-03-25T03:45:49;93410;;;1.8;100.0
26178;BME280;13924;47.670;10.310;2024-03-25T04:00:51;93390;;;1.9;100.0
26178;BME280;13924;47.670;10.310;2024-03-25T04:15:52;93390;;;1.9;100.0
26178;BME280;13924;47.670;10.310;2024-03-25T04:30:52;93390;;;1.8;100.0
26178;BME280;13924;47.670;10.310;2024-03-25T04:45:52;93390;;;1.7;100.0
26178;BME280;13924;47.670;10.310;2024-03-25T05:00:54;93390;;;1.6;100.0
26178;BME280;13924;47.670;10.310;2024-03-25T05:07:05;93390;;;1.5;100.0
26178;BME280;13924;47.670;10.310;2024-03-25T05:22:04;93380;;;1.6;100.0
26178;BME280;13924;47.670;10.310;2024-03-25T05:37:06;93360;;;1.5;100.0
26178;BME280;13924;47.670;10.310;2024-03-25T05:52:06;93370;;;1.5;100.0
26178;BME280;13924;47.670;10.310;2024-03-25T06:07:07;93350;;;1.5;100.0
26178;BME280;13924;47.670;10.310;2024-03-25T06:22:09;93320;;;1.8;100.0
26178;BME280;13924;47.670;10.310;2024-03-25T06:37:08;93310;;;1.9;100.0
26178;BME280;13924;47.670;10.310;2024-03-25T06:52:10;93310;;;1.9;100.0
26178;BME280;13924;47.670;10.310;2024-03-25T07:07:10;93300;;;2.3;100.0
26178;BME280;13924;47.670;10.310;2024-03-25T07:22:12;93080;;;2.7;100.0
26178;BME280;13924;47.670;10.310;2024-03-25T07:37:15;93080;;;2.7;100.0
26178;BME280;13924;47.670;10.310;2024-03-25T07:52:13;92760;;;3.2;100.0
26178;BME280;13924;47.670;10.310;2024-03-25T08:07:14;92790;;;3.7;100.0
26178;BME280;13924;47.670;10.310;2024-03-25T08:22:14;92670;;;3.9;100.0
26178;BME280;13924;47.670;10.310;2024-03-25T08:37:15;92720;;;4.3;100.0
26178;BME280;13924;47.670;10.310;2024-03-25T08:52:16;92660;;;4.5;100.0
26178;BME280;13924;47.670;10.310;2024-03-25T09:07:18;92560;;;4.9;100.0
26178;BME280;13924;47.670;10.310;2024-03-25T09:22:18;92420;;;5.2;100.0
26178;BME280;13924;47.670;10.310;2024-03-25T09:37:24;92420;;;5.2;100.0
26178;BME280;13924;47.670;10.310;2024-03-25T09:52:19;92370;;;6.0;100.0
26178;BME280;13924;47.670;10.310;2024-03-25T10:07:22;92350;;;7.1;100.0
26178;BME280;13924;47.670;10.310;2024-03-25T10:22:20;92300;;;7.9;100.0
26178;BME280;13924;47.670;10.310;2024-03-25T10:37:21;92280;;;8.9;100.0
26178;BME280;13924;47.670;10.310;2024-03-25T10:52:24;92270;;;10.1;100.0
26178;BME280;13924;47.670;10.310;2024-03-25T11:07:30;92240;;;11.0;100.0
26178;BME280;13924;47.670;10.310;2024-03-25T11:22:24;92200;;;12.3;100.0
26178;BME280;13924;47.670;10.310;2024-03-25T11:37:23;92180;;;12.2;67.9
26178;BME280;13924;47.670;10.310;2024-03-25T11:52:30;92140;;;12.5;69.9
26178;BME280;13924;47.670;10.310;2024-03-25T12:07:31;92130;;;12.8;72.6
26178;BME280;13924;47.670;10.310;2024-03-25T12:22:25;92090;;;13.3;59.1
26178;BME280;13924;47.670;10.310;2024-03-25T12:37:30;92090;;;13.3;59.1
26178;BME280;13924;47.670;10.310;2024-03-25T12:52:28;92030;;;13.0;50.9
26178;BME280;13924;47.670;10.310;2024-03-25T13:07:29;92010;;;13.0;52.1
26178;BME280;13924;47.670;10.310;2024-03-25T13:22:29;91980;;;14.8;49.7
26178;BME280;13924;47.670;10.310;2024-03-25T13:37:29;91970;;;13.9;46.5
26178;BME280;13924;47.670;10.310;2024-03-25T13:52:31;91940;;;15.8;41.0
26178;BME280;13924;47.670;10.310;2024-03-25T14:07:31;91910;;;14.3;41.7
26178;BME280;13924;47.670;10.310;2024-03-25T14:22:31;91880;;;15.1;47.5
26178;BME280;13924;47.670;10.310;2024-03-25T14:37:32;91850;;;14.8;39.3
26178;BME280;13924;47.670;10.310;2024-03-25T14:52:32;91840;;;14.6;42.5
26178;BME280;13924;47.670;10.310;2024-03-25T15:07:33;91810;;;14.2;44.2
26178;BME280;13924;47.670;10.310;2024-03-25T15:22:34;91790;;;13.9;50.1
26178;BME280;13924;47.670;10.310;2024-03-25T15:37:34;91770;;;13.7;49.3
26178;BME280;13924;47.670;10.310;2024-03-25T15:52:35;91740;;;13.2;49.7
26178;BME280;13924;47.670;10.310;2024-03-25T16:07:36;91720;;;13.3;55.1
26178;BME280;13924;47.670;10.310;2024-03-25T16:22:39;91720;;;13.3;55.1
26178;BME280;13924;47.670;10.310;2024-03-25T16:37:39;91700;;;13.0;56.1
26178;BME280;13924;47.670;10.310;2024-03-25T16:52:38;91690;;;11.8;58.5
26178;BME280;13924;47.670;10.310;2024-03-25T17:07:38;91700;;;11.4;71.8
26178;BME280;13924;47.670;10.310;2024-03-25T17:22:40;91690;;;10.5;81.8
26178;BME280;13924;47.670;10.310;2024-03-25T17:37:40;91690;;;9.9;94.3
26178;BME280;13924;47.670;10.310;2024-03-25T17:52:40;91680;;;9.2;97.7
26178;BME280;13924;47.670;10.310;2024-03-25T18:07:42;91660;;;8.7;100.0
26178;BME280;13924;47.670;10.310;2024-03-25T18:22:43;91660;;;8.5;100.0
26178;BME280;13924;47.670;10.310;2024-03-25T18:37:43;91650;;;8.2;100.0
26178;BME280;13924;47.670;10.310;2024-03-25T18:52:46;91650;;;8.2;100.0
26178;BME280;13924;47.670;10.310;2024-03-25T19:07:43;91640;;;8.0;100.0
26178;BME280;13924;47.670;10.310;2024-03-25T19:22:47;91640;;;8.0;100.0
26178;BME280;13924;47.670;10.310;2024-03-25T19:37:46;91620;;;7.8;100.0
26178;BME280;13924;47.670;10.310;2024-03-25T19:52:46;91600;;;7.3;100.0
26178;BME280;13924;47.670;10.310;2024-03-25T20:07:47;91600;;;7.1;100.0
26178;BME280;13924;47.670;10.310;2024-03-25T20:22:47;91610;;;5.5;100.0
26178;BME280;13924;47.670;10.310;2024-03-25T20:37:48;91620;;;6.0;100.0
26178;BME280;13924;47.670;10.310;2024-03-25T20:52:49;91630;;;6.0;100.0
26178;BME280;13924;47.670;10.310;2024-03-25T21:07:49;91620;;;5.3;100.0
26178;BME280;13924;47.670;10.310;2024-03-25T21:22:50;91660;;;5.2;100.0
26178;BME280;13924;47.670;10.310;2024-03-25T21:37:50;91620;;;4.9;100.0
26178;BME280;13924;47.670;10.310;2024-03-25T21:52:57;91620;;;4.9;100.0
26178;BME280;13924;47.670;10.310;2024-03-25T22:07:52;91550;;;4.6;100.0
26178;BME280;13924;47.670;10.310;2024-03-25T22:22:52;91670;;;3.3;100.0
26178;BME280;13924;47.670;10.310;2024-03-25T22:37:53;91780;;;3.3;100.0
26178;BME280;13924;47.670;10.310;2024-03-25T22:52:54;91830;;;3.4;100.0
26178;BME280;13924;47.670;10.310;2024-03-25T23:00:34;91730;;;3.6;100.0
26178;BME280;13924;47.670;10.310;2024-03-25T23:15:34;91810;;;2.6;100.0
26178;BME280;13924;47.670;10.310;2024-03-25T23:30:35;91790;;;3.2;100.0
26178;BME280;13924;47.670;10.310;2024-03-25T23:45:36;91720;;;3.2;100.0
